Jamestown, Ohio
Current Conditions -  °F | °C
As of 5:03 PM on Tuesday 25 Nov 2014 (Local Time) from KSGH Reporting Station
Overcast Overcast  
Wind Chill: 29°   Ceiling: 3000
Heat Index: 36°   Visibility: 7mi
Dew Point: 30°   Wind: 9mph
Humidity: 81%   Direction: 270°W
Pressure: 30.14"   Gusts: NA
Location:  39.66°N, 83.73°W
Report Text: KSGH 252203Z AUTO 27008KT 7SM FEW020 OVC030 02/M01 A3014 RMK AO2 $
Loading
Personal Weather Stations






























Interactive Weather Map New forecast layout! Learn more

10-Day Weather Forecast

Advertisements
Track Severe Weather on mobile